Time;durP1;ratioP1;P1;durP2;ratioP2;P2;SDS_P1;SDS_P2;PMS_P1;PMS_P2;Temp;Humidity;BMP_temperature;BMP_pressure;BME280_temperature;BME280_humidity;BME280_pressure;Samples;Min_cycle;Max_cycle;Signal;HPM_P1;HPM_P2
2023/05/09 00:01:30;;;;;;;8.83;5.53;;;14.20;99.90;;;;;;5091891;28;20444;-76
2023/05/09 00:03:57;;;;;;;8.33;4.90;;;14.20;99.90;;;;;;5091408;28;20563;-76
2023/05/09 00:06:24;;;;;;;9.00;5.57;;;14.30;99.90;;;;;;5092272;28;20448;-77
2023/05/09 00:08:51;;;;;;;7.73;4.43;;;14.30;99.90;;;;;;5101466;28;20464;-77
2023/05/09 00:11:20;;;;;;;9.57;6.40;;;14.20;99.90;;;;;;5112396;28;20447;-77
2023/05/09 00:13:47;;;;;;;6.63;4.50;;;14.10;99.90;;;;;;5110530;28;20503;-74
2023/05/09 00:16:14;;;;;;;8.67;5.33;;;14.00;99.90;;;;;;5112093;28;20511;-77
2023/05/09 00:18:42;;;;;;;8.43;6.13;;;14.30;99.90;;;;;;5111011;28;20448;-76
2023/05/09 00:21:09;;;;;;;8.30;5.40;;;14.30;99.90;;;;;;5112075;28;20443;-76
2023/05/09 00:23:36;;;;;;;8.07;5.90;;;14.30;99.90;;;;;;5112250;28;20492;-72
2023/05/09 00:26:03;;;;;;;5.93;4.40;;;14.20;99.90;;;;;;5111725;28;20454;-77
2023/05/09 00:28:32;;;;;;;9.47;6.40;;;14.20;99.90;;;;;;5111257;28;20485;-77
2023/05/09 00:30:58;;;;;;;6.00;4.87;;;14.10;99.90;;;;;;5111130;28;20638;-76
2023/05/09 00:33:26;;;;;;;7.13;4.73;;;14.10;99.90;;;;;;5110782;28;20456;-77
2023/05/09 00:35:53;;;;;;;10.53;6.43;;;14.20;99.90;;;;;;5111200;28;20483;-76
2023/05/09 00:38:20;;;;;;;8.33;5.23;;;14.30;99.90;;;;;;5111198;28;20451;-77
2023/05/09 00:40:47;;;;;;;7.50;5.83;;;14.20;99.90;;;;;;5109937;28;20454;-76
2023/05/09 00:43:13;;;;;;;10.63;6.30;;;14.20;99.90;;;;;;5110893;28;20440;-76
2023/05/09 00:45:42;;;;;;;8.80;5.23;;;14.20;99.90;;;;;;5110760;28;20823;-77
2023/05/09 00:48:09;;;;;;;8.93;5.87;;;14.10;99.90;;;;;;5111446;28;20443;-77
2023/05/09 00:50:36;;;;;;;11.80;6.57;;;14.20;99.90;;;;;;5105983;28;21024;-77
2023/05/09 00:53:04;;;;;;;9.07;6.20;;;14.10;99.90;;;;;;5111535;28;20824;-76
2023/05/09 00:55:31;;;;;;;8.37;5.60;;;14.00;99.90;;;;;;5111722;28;20475;-77
2023/05/09 00:57:58;;;;;;;7.50;5.70;;;14.10;99.90;;;;;;5110876;28;20450;-78
2023/05/09 01:00:25;;;;;;;8.90;5.47;;;14.20;99.90;;;;;;5111540;28;20447;-78
2023/05/09 01:02:55;;;;;;;6.20;4.80;;;14.10;99.90;;;;;;5110375;28;20455;-78
2023/05/09 01:05:24;;;;;;;9.73;6.30;;;14.00;99.90;;;;;;5112043;28;20534;-78
2023/05/09 01:08:01;;;;;;;8.37;5.43;;;14.00;99.90;;;;;;5109811;28;20455;-78
2023/05/09 01:10:35;;;;;;;7.93;5.53;;;13.90;99.90;;;;;;5103879;28;20443;-78
2023/05/09 01:13:09;;;;;;;9.97;5.83;;;13.90;99.90;;;;;;5110832;28;20435;-78
2023/05/09 01:15:43;;;;;;;9.63;5.30;;;14.10;99.90;;;;;;5111501;28;20467;-73
2023/05/09 01:18:17;;;;;;;6.47;5.30;;;14.10;99.90;;;;;;5110844;28;20455;-78
2023/05/09 01:20:46;;;;;;;8.30;5.27;;;14.00;99.90;;;;;;5105605;28;20447;-78
2023/05/09 01:23:36;;;;;;;8.53;6.07;;;13.90;99.90;;;;;;5111064;28;20440;-78
2023/05/09 01:26:05;;;;;;;9.67;6.03;;;13.90;99.90;;;;;;5109361;28;20448;-77
2023/05/09 01:28:49;;;;;;;8.57;5.77;;;13.90;99.90;;;;;;5110657;28;20447;-78
2023/05/09 01:31:17;;;;;;;9.27;5.40;;;13.90;99.90;;;;;;5109984;28;20808;-78
2023/05/09 01:33:50;;;;;;;9.70;5.70;;;13.90;99.90;;;;;;5109695;28;20930;-75
2023/05/09 01:36:18;;;;;;;8.93;5.30;;;14.00;99.90;;;;;;5110845;28;20471;-78
2023/05/09 01:38:50;;;;;;;7.60;5.53;;;13.90;99.90;;;;;;5109428;28;20458;-78
2023/05/09 01:41:19;;;;;;;10.23;7.50;;;13.90;99.90;;;;;;5110636;28;20803;-79
2023/05/09 01:43:48;;;;;;;9.57;6.37;;;13.80;99.90;;;;;;5109809;28;20799;-78
2023/05/09 01:46:18;;;;;;;7.80;5.10;;;13.90;99.90;;;;;;5110450;28;20451;-78
2023/05/09 01:48:46;;;;;;;10.77;5.60;;;14.00;99.90;;;;;;5109380;28;20455;-78
2023/05/09 01:51:14;;;;;;;8.90;4.97;;;13.90;99.90;;;;;;5112521;28;20448;-78
2023/05/09 01:53:43;;;;;;;11.10;6.17;;;13.80;99.90;;;;;;5115204;28;20446;-76
2023/05/09 01:56:11;;;;;;;11.03;7.27;;;13.90;99.90;;;;;;5114410;28;21013;-77
2023/05/09 01:58:40;;;;;;;10.07;6.00;;;14.00;99.90;;;;;;5114339;28;20459;-72
2023/05/09 02:01:07;;;;;;;12.33;7.53;;;14.00;99.90;;;;;;5114107;28;20504;-77
2023/05/09 02:03:37;;;;;;;8.27;6.50;;;13.90;99.90;;;;;;5114590;28;20785;-77
2023/05/09 02:06:05;;;;;;;7.37;5.30;;;14.00;99.90;;;;;;5114102;28;20436;-77
2023/05/09 02:08:33;;;;;;;7.97;5.80;;;14.10;99.90;;;;;;5113785;28;20471;-77
2023/05/09 02:11:00;;;;;;;8.50;5.60;;;14.20;99.90;;;;;;5113715;28;20443;-75
2023/05/09 02:13:27;;;;;;;10.00;6.37;;;14.10;99.90;;;;;;5114097;28;20455;-77
2023/05/09 02:15:55;;;;;;;11.10;5.97;;;13.90;99.90;;;;;;5113457;28;20479;-78
2023/05/09 02:18:21;;;;;;;9.77;5.80;;;13.80;99.90;;;;;;5113235;28;20454;-77
2023/05/09 02:20:49;;;;;;;7.80;5.80;;;13.80;99.90;;;;;;5113584;28;20780;-78
2023/05/09 02:23:16;;;;;;;9.33;6.00;;;13.80;99.90;;;;;;5114438;28;20453;-77
2023/05/09 02:25:44;;;;;;;9.80;6.40;;;13.80;99.90;;;;;;5113710;28;20448;-76
2023/05/09 02:28:12;;;;;;;11.07;6.20;;;13.70;99.90;;;;;;5113769;28;20877;-77
2023/05/09 02:30:42;;;;;;;11.40;7.57;;;13.90;99.90;;;;;;5113690;28;20462;-71
2023/05/09 02:33:12;;;;;;;9.90;6.27;;;13.90;99.90;;;;;;5114527;28;20448;-77
2023/05/09 02:35:41;;;;;;;11.30;7.47;;;14.00;99.90;;;;;;5112697;28;21331;-76
2023/05/09 02:38:10;;;;;;;12.73;7.33;;;13.80;99.90;;;;;;5113606;28;20447;-76
2023/05/09 02:40:37;;;;;;;12.90;6.80;;;14.00;99.90;;;;;;5113620;28;20446;-74
2023/05/09 02:43:04;;;;;;;11.17;7.00;;;14.20;99.90;;;;;;5114182;28;20459;-77
2023/05/09 02:45:30;;;;;;;9.83;6.63;;;14.10;99.90;;;;;;5113784;28;20462;-77
2023/05/09 02:47:57;;;;;;;11.40;7.10;;;14.20;99.90;;;;;;5112596;28;20447;-76
2023/05/09 02:50:24;;;;;;;8.47;5.90;;;14.30;99.90;;;;;;5114056;28;20804;-77
2023/05/09 02:52:51;;;;;;;13.13;6.30;;;14.20;99.90;;;;;;5113177;28;20469;-77
2023/05/09 02:55:19;;;;;;;9.60;5.53;;;14.00;99.90;;;;;;5114447;28;20485;-76
2023/05/09 02:57:46;;;;;;;9.83;6.30;;;13.90;99.90;;;;;;5111718;28;20447;-77
2023/05/09 03:00:14;;;;;;;8.20;6.13;;;13.80;99.90;;;;;;5114121;28;20451;-77
2023/05/09 03:02:41;;;;;;;8.80;5.23;;;13.80;99.90;;;;;;5112427;28;20451;-76
2023/05/09 03:05:08;;;;;;;12.13;7.30;;;13.70;99.90;;;;;;5113360;28;20443;-76
2023/05/09 03:07:35;;;;;;;10.50;7.03;;;13.70;99.90;;;;;;5113036;28;20452;-78
2023/05/09 03:10:02;;;;;;;11.63;6.80;;;13.80;99.90;;;;;;5112494;28;20446;-78
2023/05/09 03:12:30;;;;;;;13.10;7.70;;;13.70;99.90;;;;;;5112918;28;20439;-77
2023/05/09 03:14:57;;;;;;;11.10;6.90;;;13.70;99.90;;;;;;5112355;28;20450;-77
2023/05/09 03:17:23;;;;;;;11.00;6.73;;;13.80;99.90;;;;;;5112158;28;20810;-78
2023/05/09 03:19:50;;;;;;;10.07;6.67;;;13.80;99.90;;;;;;5112246;28;20444;-77
2023/05/09 03:22:17;;;;;;;9.37;6.00;;;13.80;99.90;;;;;;5113085;28;20447;-78
2023/05/09 03:24:44;;;;;;;10.33;5.73;;;13.70;99.90;;;;;;5111728;28;20452;-78
2023/05/09 03:27:10;;;;;;;10.90;7.53;;;13.90;99.90;;;;;;5113516;28;20799;-77
2023/05/09 03:29:38;;;;;;;9.17;6.23;;;13.80;99.90;;;;;;5113020;28;20470;-76
2023/05/09 03:32:05;;;;;;;8.47;5.80;;;13.60;99.90;;;;;;5113396;28;20451;-77
2023/05/09 03:34:32;;;;;;;11.27;7.07;;;13.60;99.90;;;;;;5112840;28;20452;-77
2023/05/09 03:36:59;;;;;;;9.20;6.60;;;13.60;99.90;;;;;;5112036;28;21008;-77
2023/05/09 03:39:26;;;;;;;10.00;6.57;;;13.50;99.90;;;;;;5110896;28;20460;-76
2023/05/09 03:41:53;;;;;;;12.00;7.17;;;13.60;99.90;;;;;;5112169;28;20451;-77
2023/05/09 03:44:20;;;;;;;10.93;6.20;;;13.60;99.90;;;;;;5111759;28;20448;-78
2023/05/09 03:46:48;;;;;;;11.20;6.97;;;13.60;99.90;;;;;;5111812;28;20452;-77
2023/05/09 03:49:15;;;;;;;15.43;8.10;;;13.50;99.90;;;;;;5111711;28;20439;-78
2023/05/09 03:51:42;;;;;;;9.53;5.87;;;13.50;99.90;;;;;;5111054;28;21000;-77
2023/05/09 03:54:09;;;;;;;10.97;5.93;;;13.50;99.90;;;;;;5112609;28;20444;-77
2023/05/09 03:56:36;;;;;;;12.13;7.40;;;13.50;99.90;;;;;;5111965;28;20475;-74
2023/05/09 03:59:02;;;;;;;14.60;7.60;;;13.40;99.90;;;;;;5112141;28;20455;-76
2023/05/09 04:01:30;;;;;;;9.90;6.73;;;13.40;99.90;;;;;;5112056;28;20444;-78
2023/05/09 04:03:58;;;;;;;10.80;6.00;;;13.40;99.90;;;;;;5111640;28;20452;-77
2023/05/09 04:06:25;;;;;;;11.50;7.80;;;13.50;99.90;;;;;;5111233;28;20458;-78
2023/05/09 04:08:52;;;;;;;13.27;6.90;;;13.50;99.90;;;;;;5111950;28;20571;-78
2023/05/09 04:11:18;;;;;;;11.50;7.00;;;13.40;99.90;;;;;;5113178;28;20804;-77
2023/05/09 04:13:45;;;;;;;12.23;7.10;;;13.40;99.90;;;;;;5112038;28;20444;-78
2023/05/09 04:16:12;;;;;;;10.10;5.90;;;13.30;99.90;;;;;;5111295;28;20848;-79
2023/05/09 04:18:41;;;;;;;14.20;7.17;;;13.30;99.90;;;;;;5110601;28;20444;-72
2023/05/09 04:21:09;;;;;;;9.20;5.50;;;13.40;99.90;;;;;;5111997;28;20452;-77
2023/05/09 04:23:37;;;;;;;8.57;6.67;;;13.40;99.90;;;;;;5112226;28;20444;-73
2023/05/09 04:26:04;;;;;;;11.83;7.07;;;13.40;99.90;;;;;;5111035;28;20803;-78
2023/05/09 04:28:31;;;;;;;13.03;7.10;;;13.40;99.90;;;;;;5111095;28;20452;-79
2023/05/09 04:30:58;;;;;;;10.73;7.23;;;13.40;99.90;;;;;;5109963;28;20440;-79
2023/05/09 04:33:24;;;;;;;12.50;7.67;;;13.40;99.90;;;;;;5111942;28;20448;-78
2023/05/09 04:35:51;;;;;;;11.73;7.47;;;13.50;99.90;;;;;;5111134;28;20903;-78
2023/05/09 04:38:20;;;;;;;14.00;8.73;;;13.50;99.90;;;;;;5111500;28;20451;-79
2023/05/09 04:40:47;;;;;;;16.70;8.53;;;13.50;99.90;;;;;;5110563;28;20861;-79
2023/05/09 04:43:13;;;;;;;11.67;6.77;;;13.50;99.90;;;;;;5111879;28;20933;-79
2023/05/09 04:45:40;;;;;;;10.73;6.23;;;13.50;99.90;;;;;;5110988;28;20976;-75
2023/05/09 04:48:07;;;;;;;11.77;7.23;;;13.50;99.90;;;;;;5110645;28;20451;-78
2023/05/09 04:50:35;;;;;;;11.60;7.33;;;13.60;99.90;;;;;;5110769;28;20455;-79
2023/05/09 04:53:02;;;;;;;12.83;7.50;;;13.60;99.90;;;;;;5105470;28;20568;-78
2023/05/09 04:55:30;;;;;;;11.77;6.63;;;13.80;99.90;;;;;;5111241;28;20451;-79
2023/05/09 04:57:56;;;;;;;11.53;6.53;;;14.00;99.90;;;;;;5110390;28;20447;-78
2023/05/09 05:00:23;;;;;;;14.50;7.80;;;14.20;99.90;;;;;;5111154;28;20446;-80
2023/05/09 05:02:50;;;;;;;13.57;7.10;;;14.30;99.90;;;;;;5110634;28;20980;-79
2023/05/09 05:05:17;;;;;;;14.03;7.70;;;14.30;99.90;;;;;;5111532;28;20957;-79
2023/05/09 05:07:44;;;;;;;11.20;7.60;;;14.40;99.90;;;;;;5110465;28;20474;-79
2023/05/09 05:10:11;;;;;;;11.80;7.30;;;14.50;99.90;;;;;;5112076;28;20801;-79
2023/05/09 05:12:39;;;;;;;14.77;6.90;;;14.50;99.90;;;;;;5109561;28;20899;-73
2023/05/09 05:15:06;;;;;;;9.33;6.90;;;14.60;99.90;;;;;;5110980;28;20448;-80
2023/05/09 05:17:33;;;;;;;8.70;5.77;;;14.50;99.90;;;;;;5111053;28;20483;-79
2023/05/09 05:20:00;;;;;;;8.40;6.47;;;14.60;99.90;;;;;;5115419;27;20443;-80
2023/05/09 05:22:27;;;;;;;10.03;5.80;;;14.70;99.90;;;;;;5111013;28;20966;-78
2023/05/09 05:24:54;;;;;;;10.53;7.53;;;14.60;99.90;;;;;;5110380;28;20440;-77
2023/05/09 05:27:20;;;;;;;14.73;9.37;;;14.60;99.90;;;;;;5110906;28;20454;-77
2023/05/09 05:29:49;;;;;;;13.63;8.47;;;14.50;99.90;;;;;;5111042;28;20538;-77
2023/05/09 05:32:15;;;;;;;10.13;7.10;;;14.50;99.90;;;;;;5111539;28;20444;-78
2023/05/09 05:34:42;;;;;;;13.23;7.80;;;14.50;99.90;;;;;;5113740;27;20443;-81
2023/05/09 05:37:09;;;;;;;8.27;5.23;;;14.70;99.90;;;;;;5114390;27;20523;-81
2023/05/09 05:39:36;;;;;;;12.53;6.70;;;14.60;99.90;;;;;;5110866;28;20444;-74
2023/05/09 05:42:03;;;;;;;11.70;6.60;;;14.80;99.90;;;;;;5110164;28;20547;-80
2023/05/09 05:44:29;;;;;;;11.37;6.13;;;14.70;99.90;;;;;;5111162;28;20803;-78
2023/05/09 05:46:58;;;;;;;9.00;6.70;;;14.80;99.90;;;;;;5109690;28;20458;-73
2023/05/09 05:49:24;;;;;;;9.87;5.83;;;14.80;99.90;;;;;;5106276;28;20443;-79
2023/05/09 05:51:51;;;;;;;11.20;6.77;;;14.90;99.90;;;;;;5108259;28;20452;-79
2023/05/09 05:54:18;;;;;;;11.60;6.37;;;14.70;99.90;;;;;;5110714;28;20459;-78
2023/05/09 05:56:45;;;;;;;9.47;6.70;;;14.80;99.90;;;;;;5115704;28;20476;-77
2023/05/09 05:59:11;;;;;;;10.70;7.20;;;14.70;99.90;;;;;;5111438;28;20451;-79
2023/05/09 06:01:38;;;;;;;12.87;6.87;;;14.70;99.90;;;;;;5097626;28;20466;-78
2023/05/09 06:04:06;;;;;;;15.27;8.43;;;14.80;99.90;;;;;;5119244;28;20547;-81
2023/05/09 06:06:33;;;;;;;13.47;8.27;;;14.90;99.90;;;;;;5108806;28;20443;-80
2023/05/09 06:09:00;;;;;;;13.40;8.07;;;14.90;99.90;;;;;;5110094;28;20475;-77
2023/05/09 06:11:27;;;;;;;11.50;7.33;;;15.10;99.90;;;;;;5110653;28;20451;-77
2023/05/09 06:13:54;;;;;;;13.00;7.40;;;15.10;99.90;;;;;;5110239;28;20439;-77
2023/05/09 06:16:21;;;;;;;12.73;7.60;;;15.10;99.90;;;;;;5110861;28;20479;-78
2023/05/09 06:18:48;;;;;;;12.87;7.17;;;15.10;99.90;;;;;;5109824;28;20935;-76
2023/05/09 06:21:16;;;;;;;10.07;6.47;;;15.20;99.90;;;;;;5110217;28;20534;-75
2023/05/09 06:23:43;;;;;;;11.63;6.77;;;15.10;99.90;;;;;;5110288;28;20443;-77
2023/05/09 06:26:11;;;;;;;8.83;5.70;;;15.20;99.90;;;;;;5110323;28;20458;-78
2023/05/09 06:28:37;;;;;;;13.37;9.43;;;15.20;99.90;;;;;;5110107;28;20455;-79
2023/05/09 06:31:04;;;;;;;12.07;6.67;;;15.30;99.90;;;;;;5110418;28;20440;-76
2023/05/09 06:33:31;;;;;;;8.43;5.57;;;15.40;99.90;;;;;;5109865;28;20439;-77
2023/05/09 06:35:59;;;;;;;13.97;7.30;;;15.40;99.90;;;;;;5109327;28;20623;-77
2023/05/09 06:38:27;;;;;;;10.97;7.57;;;15.40;99.90;;;;;;5112803;28;20448;-77
2023/05/09 06:40:54;;;;;;;10.30;6.30;;;15.40;99.90;;;;;;5112837;28;20455;-77
2023/05/09 06:43:21;;;;;;;11.23;6.47;;;15.50;99.90;;;;;;5113839;28;20448;-76
2023/05/09 06:45:48;;;;;;;11.40;7.60;;;15.40;99.90;;;;;;5113018;28;20456;-76
2023/05/09 06:48:15;;;;;;;13.17;7.23;;;15.40;99.90;;;;;;5113002;28;20458;-77
2023/05/09 06:50:41;;;;;;;11.73;7.50;;;15.40;99.90;;;;;;5112234;28;20466;-77
2023/05/09 06:53:08;;;;;;;11.90;7.97;;;15.50;99.90;;;;;;5113651;28;20455;-78
2023/05/09 06:55:37;;;;;;;9.93;5.87;;;15.60;99.90;;;;;;5112892;28;20535;-81
2023/05/09 06:58:04;;;;;;;11.60;6.83;;;15.60;99.90;;;;;;5112583;28;20475;-79
2023/05/09 07:00:30;;;;;;;11.30;6.67;;;15.70;99.90;;;;;;5112964;28;20435;-77
2023/05/09 07:02:57;;;;;;;9.73;5.97;;;15.60;99.90;;;;;;5112367;28;21022;-78
2023/05/09 07:05:24;;;;;;;10.83;6.10;;;15.70;99.90;;;;;;5113850;28;20511;-79
2023/05/09 07:07:53;;;;;;;14.70;6.97;;;15.90;99.90;;;;;;5113198;28;20455;-78
2023/05/09 07:10:20;;;;;;;11.57;6.77;;;16.10;99.90;;;;;;5113865;28;20492;-81
2023/05/09 07:12:49;;;;;;;9.27;5.63;;;16.20;99.90;;;;;;5112310;28;20548;-79
2023/05/09 07:15:16;;;;;;;16.37;7.13;;;16.30;99.90;;;;;;5113092;28;20455;-77
2023/05/09 07:17:43;;;;;;;8.93;6.13;;;16.40;2.10;;;;;;5112635;28;20479;-80
2023/05/09 07:20:10;;;;;;;10.60;7.00;;;16.50;16.60;;;;;;5113634;28;20448;-79
2023/05/09 07:22:37;;;;;;;9.57;6.00;;;16.50;32.10;;;;;;5076920;28;20965;-73
2023/05/09 07:25:06;;;;;;;11.60;5.90;;;16.60;69.60;;;;;;5113599;28;20493;-80
2023/05/09 07:27:33;;;;;;;10.30;6.60;;;16.80;1.00;;;;;;5112496;28;20452;-79
2023/05/09 07:30:01;;;;;;;12.00;6.27;;;16.80;99.90;;;;;;5112738;28;20518;-80
2023/05/09 07:32:28;;;;;;;9.27;6.07;;;16.90;99.90;;;;;;5112213;28;20938;-82
2023/05/09 07:34:55;;;;;;;12.30;6.83;;;16.90;99.90;;;;;;5109774;28;20961;-75
2023/05/09 07:37:22;;;;;;;10.37;6.90;;;16.90;99.90;;;;;;5111988;28;20478;-77
2023/05/09 07:39:49;;;;;;;8.10;5.63;;;17.00;40.20;;;;;;5112381;28;20785;-79
2023/05/09 07:42:15;;;;;;;8.93;6.17;;;17.00;27.30;;;;;;5112957;28;20447;-79
2023/05/09 07:44:42;;;;;;;8.30;5.40;;;17.10;99.90;;;;;;5112897;28;20455;-80
2023/05/09 07:47:10;;;;;;;8.17;5.23;;;17.30;99.90;;;;;;5112954;28;20464;-79
2023/05/09 07:49:39;;;;;;;7.30;4.53;;;17.40;99.90;;;;;;5111172;28;20830;-77
2023/05/09 07:52:05;;;;;;;7.70;5.47;;;17.40;99.90;;;;;;5113063;28;20451;-78
2023/05/09 07:54:32;;;;;;;8.93;4.97;;;17.50;19.20;;;;;;5112997;28;20460;-77
2023/05/09 07:56:59;;;;;;;7.57;4.93;;;17.50;99.90;;;;;;5108933;28;20989;-78
2023/05/09 07:59:26;;;;;;;7.83;4.60;;;17.70;99.90;;;;;;5100878;28;20452;-76
2023/05/09 08:01:53;;;;;;;6.50;4.03;;;17.80;1.00;;;;;;5111349;28;20444;-77
2023/05/09 08:04:21;;;;;;;6.53;4.27;;;17.80;1.00;;;;;;5112656;28;20448;-77
2023/05/09 08:06:47;;;;;;;5.50;3.80;;;17.90;1.00;;;;;;5111783;28;20455;-77
2023/05/09 08:09:14;;;;;;;5.23;4.00;;;17.90;99.90;;;;;;5111830;28;20479;-75
2023/05/09 08:11:41;;;;;;;5.30;3.93;;;18.00;11.60;;;;;;5111491;28;20444;-80
2023/05/09 08:14:08;;;;;;;5.00;3.40;;;18.20;1.00;;;;;;5108075;28;20456;-80
2023/05/09 08:16:35;;;;;;;3.90;2.50;;;18.30;99.90;;;;;;5112592;28;20919;-80
2023/05/09 08:19:02;;;;;;;4.73;2.60;;;18.10;99.90;;;;;;5112430;28;20451;-79
2023/05/09 08:21:30;;;;;;;5.07;3.47;;;18.10;1.00;;;;;;5112866;28;20521;-80
2023/05/09 08:23:57;;;;;;;5.43;3.07;;;18.30;1.00;;;;;;5112005;28;20448;-79
2023/05/09 08:26:23;;;;;;;5.30;3.77;;;18.50;99.90;;;;;;5112022;28;20455;-80
2023/05/09 08:28:50;;;;;;;4.17;3.27;;;18.40;1.00;;;;;;5111740;28;20989;-80
2023/05/09 08:31:17;;;;;;;3.53;2.50;;;18.40;1.00;;;;;;5112561;28;20814;-80
2023/05/09 08:33:44;;;;;;;5.83;3.10;;;18.60;1.00;;;;;;5111625;28;20450;-80
2023/05/09 08:36:10;;;;;;;5.30;3.20;;;18.70;1.00;;;;;;5112437;28;20454;-80
2023/05/09 08:38:39;;;;;;;5.40;3.60;;;18.60;1.00;;;;;;5112490;28;20499;-78
2023/05/09 08:41:06;;;;;;;4.47;3.70;;;18.70;1.00;;;;;;5112756;28;20444;-79
2023/05/09 08:43:34;;;;;;;6.93;3.37;;;18.80;1.00;;;;;;5112527;28;20452;-80
2023/05/09 08:46:06;;;;;;;3.87;3.13;;;18.90;1.00;;;;;;5111119;28;20949;-80
2023/05/09 08:48:36;;;;;;;4.60;3.00;;;18.90;1.00;;;;;;5112400;28;20487;-80
2023/05/09 08:51:03;;;;;;;5.90;3.87;;;19.50;99.90;;;;;;5112110;28;20436;-81
2023/05/09 08:53:31;;;;;;;5.30;3.60;;;19.50;99.90;;;;;;5112159;28;20443;-79
2023/05/09 08:56:00;;;;;;;6.80;4.70;;;19.50;99.90;;;;;;5110885;28;20444;-80
2023/05/09 08:58:27;;;;;;;6.10;4.60;;;19.60;99.90;;;;;;5112209;28;20544;-80
2023/05/09 09:00:55;;;;;;;5.53;3.93;;;19.30;99.90;;;;;;5111524;28;20448;-80
2023/05/09 09:03:23;;;;;;;6.97;4.20;;;19.60;99.90;;;;;;5111981;28;20494;-80
2023/05/09 09:05:52;;;;;;;6.20;4.27;;;19.70;91.60;;;;;;5111107;28;20450;-80
2023/05/09 09:08:20;;;;;;;7.73;4.77;;;19.90;1.00;;;;;;5111798;28;20471;-80
2023/05/09 09:10:47;;;;;;;5.80;4.10;;;19.80;1.00;;;;;;5111543;28;20538;-80
2023/05/09 09:13:17;;;;;;;5.00;3.60;;;20.00;1.00;;;;;;5112007;28;20542;-80
2023/05/09 09:15:46;;;;;;;5.20;3.80;;;20.10;1.00;;;;;;5111109;28;20812;-81
2023/05/09 09:18:20;;;;;;;5.87;3.90;;;20.10;1.00;;;;;;5111282;28;20487;-81
2023/05/09 09:20:51;;;;;;;4.73;3.43;;;20.20;1.00;;;;;;5111076;28;20812;-81
2023/05/09 09:23:20;;;;;;;6.10;4.20;;;20.20;1.00;;;;;;5111431;28;20941;-80
2023/05/09 09:25:47;;;;;;;4.50;3.30;;;20.10;1.00;;;;;;5110464;28;20451;-80
2023/05/09 09:28:16;;;;;;;4.67;4.03;;;20.10;1.00;;;;;;5111554;28;20474;-78
2023/05/09 09:30:47;;;;;;;6.83;5.13;;;20.30;1.00;;;;;;5110605;28;20466;-79
2023/05/09 09:33:20;;;;;;;5.30;3.30;;;20.40;1.00;;;;;;5111034;28;20945;-80
2023/05/09 09:35:48;;;;;;;5.23;4.10;;;20.50;1.00;;;;;;5110330;28;20459;-81
2023/05/09 09:38:16;;;;;;;5.93;4.27;;;20.50;1.00;;;;;;5111554;28;20506;-80
2023/05/09 09:40:49;;;;;;;6.23;3.40;;;20.20;1.00;;;;;;5111189;28;20823;-80
2023/05/09 09:43:17;;;;;;;6.53;4.00;;;20.20;1.00;;;;;;5111826;28;20431;-80
2023/05/09 09:45:49;;;;;;;4.97;3.63;;;20.40;1.00;;;;;;5110584;28;20792;-80
2023/05/09 09:48:15;;;;;;;5.23;3.83;;;20.10;1.00;;;;;;5111482;28;20443;-80
2023/05/09 09:50:42;;;;;;;4.90;3.70;;;20.20;1.00;;;;;;5110879;28;20454;-80
2023/05/09 09:53:09;;;;;;;5.77;3.87;;;20.40;1.00;;;;;;5111601;28;20454;-79
2023/05/09 09:55:36;;;;;;;5.40;3.50;;;20.60;1.00;;;;;;5111409;28;20451;-77
2023/05/09 09:58:03;;;;;;;5.97;3.50;;;20.80;1.00;;;;;;5111643;28;20489;-80
2023/05/09 10:00:31;;;;;;;6.13;3.63;;;21.20;1.00;;;;;;5111544;28;20516;-79
2023/05/09 10:02:59;;;;;;;5.63;3.73;;;20.90;1.00;;;;;;5110258;28;20935;-79
2023/05/09 10:05:27;;;;;;;5.07;3.57;;;20.40;1.00;;;;;;5110644;28;20970;-78
2023/05/09 10:07:56;;;;;;;4.60;3.43;;;20.20;1.00;;;;;;5110433;28;20862;-80
2023/05/09 10:10:26;;;;;;;5.60;4.17;;;20.50;1.00;;;;;;5111183;28;20442;-80
2023/05/09 10:12:55;;;;;;;4.93;4.43;;;20.60;1.00;;;;;;5113628;28;20440;-80
2023/05/09 10:15:23;;;;;;;7.67;5.60;;;20.80;1.00;;;;;;5115114;28;20443;-80
2023/05/09 10:17:54;;;;;;;4.80;4.00;;;20.70;1.00;;;;;;5114499;28;20549;-80
2023/05/09 10:20:22;;;;;;;5.87;4.33;;;20.50;1.00;;;;;;5115117;28;20450;-81
2023/05/09 10:22:50;;;;;;;6.60;4.23;;;20.70;1.00;;;;;;5114569;28;20447;-79
2023/05/09 10:25:20;;;;;;;5.77;4.07;;;20.80;1.00;;;;;;5114988;28;20444;-79
2023/05/09 10:27:48;;;;;;;5.00;3.40;;;20.70;1.00;;;;;;5114879;28;20857;-80
2023/05/09 10:30:18;;;;;;;5.33;3.90;;;20.80;1.00;;;;;;5115222;28;20440;-80
2023/05/09 10:32:51;;;;;;;7.30;4.20;;;20.80;1.00;;;;;;5114329;28;20993;-79
2023/05/09 10:35:22;;;;;;;5.40;3.70;;;20.90;1.00;;;;;;5114656;28;20450;-79
2023/05/09 10:37:50;;;;;;;6.17;4.40;;;21.00;1.00;;;;;;5114158;28;20495;-78
2023/05/09 10:40:19;;;;;;;6.23;3.70;;;21.10;1.00;;;;;;5114555;28;20452;-79
2023/05/09 10:42:46;;;;;;;5.23;4.10;;;21.10;1.00;;;;;;5114011;28;20946;-80
2023/05/09 10:45:13;;;;;;;5.50;3.53;;;21.10;1.00;;;;;;5114356;28;20451;-79
2023/05/09 10:47:41;;;;;;;6.03;4.40;;;21.70;99.90;;;;;;5114375;28;20451;-79
2023/05/09 10:50:11;;;;;;;5.57;3.60;;;21.60;99.90;;;;;;5114232;28;20443;-79
2023/05/09 10:53:06;;;;;;;5.60;4.37;;;21.70;99.90;;;;;;5113960;28;21011;-75
2023/05/09 10:55:36;;;;;;;6.20;4.30;;;22.00;99.90;;;;;;5114377;28;20785;-79
2023/05/09 10:58:19;;;;;;;5.30;4.23;;;22.20;99.90;;;;;;5114890;28;20479;-79
2023/05/09 11:00:47;;;;;;;5.70;4.07;;;22.40;99.90;;;;;;5112318;27;20458;-78
2023/05/09 11:03:13;;;;;;;11.20;4.67;;;22.10;99.90;;;;;;5116873;27;20829;-81
2023/05/09 11:05:41;;;;;;;5.57;3.83;;;22.00;99.90;;;;;;5115414;27;20459;-80
2023/05/09 11:08:24;;;;;;;5.07;3.50;;;22.30;99.90;;;;;;5113895;28;20479;-81
2023/05/09 11:10:51;;;;;;;6.63;4.30;;;22.20;99.90;;;;;;5113679;27;20458;-74
2023/05/09 11:13:23;;;;;;;4.63;3.67;;;22.30;99.90;;;;;;5114881;27;20466;-80
2023/05/09 11:16:08;;;;;;;3.70;2.87;;;22.60;99.90;;;;;;5115738;27;20504;-80
2023/05/09 11:18:35;;;;;;;6.37;4.47;;;22.60;99.90;;;;;;5105055;27;20470;-79
2023/05/09 11:21:08;;;;;;;5.30;3.40;;;22.10;99.90;;;;;;5112802;28;20451;-79
2023/05/09 11:23:38;;;;;;;4.53;3.03;;;22.10;99.90;;;;;;5112068;28;20497;-80
2023/05/09 11:26:06;;;;;;;3.63;3.13;;;22.40;99.90;;;;;;5113102;28;20497;-79
2023/05/09 11:28:35;;;;;;;4.10;2.50;;;22.70;99.90;;;;;;5113866;28;20851;-78
2023/05/09 11:31:14;;;;;;;3.30;2.77;;;22.70;99.90;;;;;;5112783;28;20526;-79
2023/05/09 11:33:43;;;;;;;2.83;2.07;;;23.00;99.90;;;;;;5112943;28;20462;-78
2023/05/09 11:36:18;;;;;;;2.70;2.00;;;23.30;99.90;;;;;;5113016;28;20456;-78
2023/05/09 11:38:47;;;;;;;2.87;2.10;;;23.00;99.90;;;;;;5112049;28;20985;-78
2023/05/09 11:41:14;;;;;;;3.00;2.00;;;23.40;99.90;;;;;;5112806;28;20452;-79
2023/05/09 11:43:43;;;;;;;4.07;2.40;;;23.30;99.90;;;;;;5112426;28;20440;-75
2023/05/09 11:46:10;;;;;;;2.23;1.80;;;23.20;99.90;;;;;;5112792;28;20440;-78
2023/05/09 11:48:41;;;;;;;3.13;2.00;;;23.30;99.90;;;;;;5112512;28;20452;-73
2023/05/09 11:51:07;;;;;;;2.60;2.03;;;23.40;99.90;;;;;;5113159;28;20463;-78
2023/05/09 11:53:35;;;;;;;2.83;2.00;;;22.50;99.90;;;;;;5112863;28;20643;-78
2023/05/09 11:56:07;;;;;;;2.83;1.70;;;23.30;99.90;;;;;;5112473;28;20448;-78
2023/05/09 11:58:37;;;;;;;2.83;1.40;;;22.90;99.90;;;;;;5106922;27;20487;-78
2023/05/09 12:01:04;;;;;;;1.77;1.40;;;22.60;99.90;;;;;;5114140;27;20456;-76
2023/05/09 12:03:32;;;;;;;2.37;1.77;;;23.10;99.90;;;;;;5112425;27;20939;-78
2023/05/09 12:06:00;;;;;;;2.13;1.60;;;23.20;99.90;;;;;;5112242;28;20538;-77
2023/05/09 12:08:27;;;;;;;2.23;1.80;;;23.50;99.90;;;;;;5108202;28;20495;-77
2023/05/09 12:10:54;;;;;;;2.60;1.67;;;23.90;99.90;;;;;;5112235;28;20508;-77
2023/05/09 12:13:22;;;;;;;2.23;1.33;;;23.50;99.90;;;;;;5101219;28;20444;-79
2023/05/09 12:15:49;;;;;;;1.83;1.53;;;23.30;99.90;;;;;;5111136;28;20444;-78
2023/05/09 12:18:17;;;;;;;2.07;1.47;;;23.60;99.90;;;;;;5112118;28;20981;-78
2023/05/09 12:20:45;;;;;;;1.97;1.23;;;23.70;99.90;;;;;;5103865;27;20521;-78
2023/05/09 12:23:13;;;;;;;2.00;1.60;;;23.90;99.90;;;;;;5112360;28;20443;-77
2023/05/09 12:25:40;;;;;;;1.67;1.13;;;23.60;99.90;;;;;;5111005;28;20516;-72
2023/05/09 12:28:06;;;;;;;1.60;1.07;;;23.30;99.90;;;;;;5113049;27;20945;-75
2023/05/09 12:30:35;;;;;;;1.50;1.23;;;23.40;99.90;;;;;;5112634;28;20530;-79
2023/05/09 12:33:02;;;;;;;1.90;1.23;;;23.10;99.90;;;;;;5113236;28;20446;-78
2023/05/09 12:35:29;;;;;;;2.00;1.30;;;22.80;99.90;;;;;;5113626;27;20469;-77
2023/05/09 12:37:58;;;;;;;1.40;0.93;;;22.60;99.90;;;;;;5109994;27;20499;-78
2023/05/09 12:40:25;;;;;;;2.13;1.10;;;23.10;99.90;;;;;;5101602;27;20444;-78
2023/05/09 12:42:56;;;;;;;1.63;1.13;;;23.30;99.90;;;;;;5110649;27;20452;-78
2023/05/09 12:45:23;;;;;;;2.00;1.37;;;23.40;99.90;;;;;;5110224;28;20446;-78
2023/05/09 12:47:53;;;;;;;2.50;1.50;;;23.50;99.90;;;;;;5110618;27;20460;-78
2023/05/09 12:50:20;;;;;;;1.77;1.13;;;23.50;99.90;;;;;;5110805;27;20456;-79